sensor_id;sensor_type;location;lat;lon;timestamp;pressure;altitude;pressure_sealevel;temperature;humidity
58975;BME280;44751;52.236;5.178;2022-12-18T11:40:26;102334.47;;;-2.81;100.00
58975;BME280;44751;52.236;5.178;2022-12-18T11:52:00;102315.25;;;-2.61;100.00
58975;BME280;44751;52.236;5.178;2022-12-18T11:54:35;102305.09;;;-2.72;100.00
58975;BME280;44751;52.236;5.178;2022-12-18T12:00:18;102283.66;;;-2.64;100.00
58975;BME280;44751;52.236;5.178;2022-12-18T12:13:47;102248.28;;;-2.60;100.00
58975;BME280;44751;52.236;5.178;2022-12-18T12:16:50;102246.88;;;-2.47;100.00
58975;BME280;44751;52.236;5.178;2022-12-18T12:19:38;102249.53;;;-2.47;100.00
58975;BME280;44751;52.236;5.178;2022-12-18T12:27:48;102244.63;;;-2.34;100.00
58975;BME280;44751;52.236;5.178;2022-12-18T12:39:01;102231.91;;;-2.24;100.00
58975;BME280;44751;52.236;5.178;2022-12-18T12:41:33;102212.84;;;-2.32;100.00
58975;BME280;44751;52.236;5.178;2022-12-18T12:47:10;102206.03;;;-2.38;100.00
58975;BME280;44751;52.236;5.178;2022-12-18T12:49:38;102194.28;;;-2.30;100.00
58975;BME280;44751;52.236;5.178;2022-12-18T12:52:29;102207.25;;;-2.24;100.00
58975;BME280;44751;52.236;5.178;2022-12-18T12:54:57;102200.91;;;-2.20;100.00
58975;BME280;44751;52.236;5.178;2022-12-18T14:47:52;102059.25;;;-1.84;100.00
58975;BME280;44751;52.236;5.178;2022-12-18T14:50:18;102051.38;;;-1.86;100.00
58975;BME280;44751;52.236;5.178;2022-12-18T14:52:47;102055.63;;;-1.82;100.00
58975;BME280;44751;52.236;5.178;2022-12-18T14:55:18;102052.91;;;-1.80;100.00
58975;BME280;44751;52.236;5.178;2022-12-18T14:57:50;102049.91;;;-1.72;100.00
58975;BME280;44751;52.236;5.178;2022-12-18T15:00:21;102050.34;;;-1.62;100.00
58975;BME280;44751;52.236;5.178;2022-12-18T15:02:53;102042.13;;;-1.75;100.00
58975;BME280;44751;52.236;5.178;2022-12-18T15:05:28;102045.34;;;-1.69;100.00
58975;BME280;44751;52.236;5.178;2022-12-18T15:08:02;102046.41;;;-1.73;100.00
58975;BME280;44751;52.236;5.178;2022-12-18T15:13:22;102037.53;;;-1.72;100.00
58975;BME280;44751;52.236;5.178;2022-12-18T21:32:10;101773.00;;;-0.85;100.00
58975;BME280;44751;52.236;5.178;2022-12-18T21:34:25;101776.59;;;-0.86;100.00
58975;BME280;44751;52.236;5.178;2022-12-18T21:36:55;101766.50;;;-0.79;100.00
58975;BME280;44751;52.236;5.178;2022-12-18T21:39:22;101775.88;;;-0.89;100.00
58975;BME280;44751;52.236;5.178;2022-12-18T21:41:49;101774.31;;;-0.76;100.00
58975;BME280;44751;52.236;5.178;2022-12-18T21:44:34;101771.66;;;-0.76;100.00
58975;BME280;44751;52.236;5.178;2022-12-18T21:47:01;101771.03;;;-0.81;100.00
58975;BME280;44751;52.236;5.178;2022-12-18T21:49:27;101755.53;;;-0.89;100.00
58975;BME280;44751;52.236;5.178;2022-12-18T21:51:55;101738.97;;;-0.76;100.00
58975;BME280;44751;52.236;5.178;2022-12-18T21:54:26;101741.72;;;-0.78;100.00
58975;BME280;44751;52.236;5.178;2022-12-18T21:57:01;101747.88;;;-0.77;100.00
58975;BME280;44751;52.236;5.178;2022-12-18T21:59:29;101754.22;;;-0.80;100.00
58975;BME280;44751;52.236;5.178;2022-12-18T22:02:12;101743.41;;;-0.77;100.00
58975;BME280;44751;52.236;5.178;2022-12-18T23:04:17;101614.44;;;-0.60;100.00
58975;BME280;44751;52.236;5.178;2022-12-18T23:06:52;101608.44;;;-0.48;100.00
58975;BME280;44751;52.236;5.178;2022-12-18T23:09:34;101608.94;;;-0.41;100.00
58975;BME280;44751;52.236;5.178;2022-12-18T23:12:20;101604.84;;;-0.47;100.00
58975;BME280;44751;52.236;5.178;2022-12-18T23:14:51;101597.56;;;-0.43;100.00
58975;BME280;44751;52.236;5.178;2022-12-18T23:17:38;101607.31;;;-0.44;100.00
58975;BME280;44751;52.236;5.178;2022-12-18T23:20:08;101600.50;;;-0.48;100.00
58975;BME280;44751;52.236;5.178;2022-12-18T23:22:38;101592.78;;;-0.53;100.00
58975;BME280;44751;52.236;5.178;2022-12-18T23:25:15;101598.50;;;-0.44;100.00
58975;BME280;44751;52.236;5.178;2022-12-18T23:27:42;101588.94;;;-0.47;100.00
58975;BME280;44751;52.236;5.178;2022-12-18T23:30:18;101590.97;;;-0.36;100.00
58975;BME280;44751;52.236;5.178;2022-12-18T23:32:55;101575.44;;;-0.42;100.00
58975;BME280;44751;52.236;5.178;2022-12-18T23:35:28;101565.56;;;-0.40;100.00
